Franklin, VA

12:54 PM EST on January 27, 2015 (GMT -0500)
Aaron's Weather Service | Change Station
CLOSE
Current Station
Personal Weather Station
Location: Franklin, VA
Elevation: 98 ft
Nearby Weather Stations

Elev 98 ft 36.70 °N, 76.96 °W | Updated 11 seconds ago

Light Snow
Light Snow
33.6 °F
Feels Like 26 °F
N
9.9
Wind Variable Wind from NNW
Gusts 11.5 mph

Today
High -- | Low -- °F
--% Chance of Precip.
Yesterday
High -- | Low -- °F
Precip. -- in
7:13 AM 5:27 PM
First Quarter, 56% visible
Pressure 29.79 in
Visibility 5.0 miles
Clouds Mostly Cloudy 1400 ft
Overcast 2000 ft
Windchill 26 °F
Dew Point 29 °F
Humidity 83%
Rainfall 0.00 in
Snow Depth Not available.
UV 1 out of 12
Pollen .40 out of 12
Air Quality Not available.
Flu Activity Not available.
METAR KFKN 271735Z AUTO 33006KT 5SM -SN BKN014 OVC020 00/M02 A2979 RMK AO2 T00011022

More Conditions Fewer Conditions

Pressure 29.79 in
Visibility 5.0 miles
Clouds Mostly Cloudy 1400 ft
Overcast 2000 ft
Windchill 26 °F
Dew Point 29 °F
Humidity 83%
Rainfall 0.00 in
Snow Depth Not available.
UV 1 out of 12
Pollen .40 out of 12
Air Quality Not available.
Flu Activity Not available.
METAR KFKN 271735Z AUTO 33006KT 5SM -SN BKN014 OVC020 00/M02 A2979 RMK AO2 T00011022

More Conditions Fewer Conditions

10-Day Weather Forecast

Almanac

Astronomy

Jan. 27, 2015 Rise Set
Actual Time
Civil Twilight
Nautical Twilight
Astronomical Twilight
Moon
Length of Visible Light
Length of Day
Tomorrow will be .
, % of the Moon is Illuminated

Today's Extremes

State Highs State Lows

Community

WunderPhotos

Upload Photos

1,790,741 photos uploaded!

WunderBlogs® & News

Nearby

Air Quality

  Air Quality AQ Index Pollutant
Not available.

Snow Depth

Station Depth Elevation

Earthquake Activity

City Distance Mag. Time & Date
Minimum magnitude displayed is 2.5.

Coastal Water Temperatures

Place Temperature

Nearby Weather Stations